Time;durP1;ratioP1;P1;durP2;ratioP2;P2;SDS_P1;SDS_P2;PMS_P1;PMS_P2;Temp;Humidity;BMP_temperature;BMP_pressure;BME280_temperature;BME280_humidity;BME280_pressure;Samples;Min_cycle;Max_cycle;Signal;HPM_P1;HPM_P2
2022/10/29 00:00:55;;;;;;;29.42;16.92;;;;;;;12.62;100.00;99095.69;2641307;28;20055;-87
2022/10/29 00:02:24;;;;;;;28.77;16.83;;;;;;;12.54;100.00;99099.34;2631384;28;20044;-87
2022/10/29 00:03:40;;;;;;;27.50;15.32;;;;;;;12.62;100.00;99100.94;2630819;28;20387;-88
2022/10/29 00:04:56;;;;;;;27.77;14.85;;;;;;;12.57;100.00;99104.56;2637195;28;20051;-87
2022/10/29 00:06:13;;;;;;;25.50;14.50;;;;;;;12.38;100.00;99108.53;2641630;28;20051;-87
2022/10/29 00:07:28;;;;;;;25.77;14.32;;;;;;;12.54;100.00;99098.50;2641451;28;20051;-87
2022/10/29 00:08:44;;;;;;;38.13;17.55;;;;;;;12.45;100.00;99096.09;2641328;28;20054;-87
2022/10/29 00:10:00;;;;;;;27.00;13.90;;;;;;;12.50;100.00;99092.47;2641445;28;20055;-87
2022/10/29 00:11:18;;;;;;;25.17;15.05;;;;;;;12.46;100.00;99093.44;2641380;28;20039;-87
2022/10/29 00:12:33;;;;;;;23.95;14.73;;;;;;;12.47;100.00;99086.41;2641667;28;20055;-87
2022/10/29 00:13:55;;;;;;;23.30;14.35;;;;;;;12.04;100.00;99086.56;2641284;28;20050;-87
2022/10/29 00:15:10;;;;;;;25.48;14.07;;;;;;;12.21;100.00;99083.53;2631131;28;20131;-88
2022/10/29 00:16:28;;;;;;;34.67;13.57;;;;;;;12.19;100.00;99087.97;2630685;28;20048;-87
2022/10/29 00:17:44;;;;;;;143.02;15.93;;;;;;;11.83;100.00;99090.53;2635923;28;20537;-87
2022/10/29 00:19:00;;;;;;;123.43;16.33;;;;;;;11.83;100.00;99087.91;2641229;28;20106;-87
2022/10/29 00:20:16;;;;;;;55.30;14.07;;;;;;;11.75;100.00;99092.47;2641429;28;20076;-87
2022/10/29 00:21:33;;;;;;;31.70;13.02;;;;;;;11.73;100.00;99093.38;2641312;28;20047;-87
2022/10/29 00:22:52;;;;;;;27.73;14.75;;;;;;;11.63;100.00;99093.59;2641527;28;20146;-87
2022/10/29 00:24:09;;;;;;;30.55;14.15;;;;;;;11.54;100.00;99099.91;2641287;28;20056;-88
2022/10/29 00:25:25;;;;;;;47.28;16.77;;;;;;;11.49;100.00;99099.13;2641489;28;20043;-87
2022/10/29 00:26:40;;;;;;;26.52;14.55;;;;;;;11.58;100.00;99101.53;2641524;28;20040;-88
2022/10/29 00:27:56;;;;;;;22.90;14.00;;;;;;;11.71;100.00;99100.38;2641342;28;20043;-87
2022/10/29 00:29:12;;;;;;;23.05;13.45;;;;;;;11.78;100.00;99098.50;2641083;28;20055;-87
2022/10/29 00:30:27;;;;;;;27.88;14.88;;;;;;;11.79;100.00;99100.22;2641439;28;20525;-87
2022/10/29 00:31:43;;;;;;;25.15;14.07;;;;;;;11.61;100.00;99096.25;2641168;28;20060;-88
2022/10/29 00:32:58;;;;;;;33.17;15.48;;;;;;;11.58;100.00;99098.94;2641594;28;20110;-87
2022/10/29 00:34:14;;;;;;;26.33;14.10;;;;;;;11.73;100.00;99103.88;2641208;28;20050;-87
2022/10/29 00:35:29;;;;;;;24.38;14.75;;;;;;;11.75;100.00;99097.72;2641452;28;20246;-87
2022/10/29 00:36:45;;;;;;;25.13;14.65;;;;;;;11.82;100.00;99107.16;2641115;28;20063;-87
2022/10/29 00:38:00;;;;;;;20.67;12.50;;;;;;;11.78;100.00;99105.50;2641372;28;20039;-87
2022/10/29 00:39:16;;;;;;;24.15;12.95;;;;;;;11.70;100.00;99108.31;2641420;28;20079;-87
2022/10/29 00:40:38;;;;;;;22.13;13.13;;;;;;;11.65;100.00;99105.78;2641249;28;20040;-86
2022/10/29 00:41:54;;;;;;;20.88;12.43;;;;;;;11.77;100.00;99109.88;2641431;28;20048;-87
2022/10/29 00:43:14;;;;;;;21.38;12.65;;;;;;;11.81;100.00;99105.44;2641363;28;20044;-87
2022/10/29 00:44:34;;;;;;;22.27;12.23;;;;;;;11.78;100.00;99106.34;2641378;28;20059;-86
2022/10/29 00:46:23;;;;;;;25.38;11.77;;;;;;;11.76;100.00;99107.31;2641503;28;20093;-88
2022/10/29 00:47:39;;;;;;;21.45;12.48;;;;;;;11.67;100.00;99106.59;2619597;28;20062;-87
2022/10/29 00:48:57;;;;;;;164.23;20.85;;;;;;;11.58;100.00;99105.03;2630813;28;20131;-87
2022/10/29 00:50:13;;;;;;;20.67;12.48;;;;;;;11.36;100.00;99103.75;2635559;28;20035;-87
2022/10/29 00:51:31;;;;;;;146.57;17.27;;;;;;;11.40;100.00;99118.56;2641351;28;20461;-88
2022/10/29 00:52:50;;;;;;;24.98;12.77;;;;;;;11.34;100.00;99109.06;2641215;28;20531;-88
2022/10/29 00:54:09;;;;;;;22.67;12.88;;;;;;;11.46;100.00;99110.56;2640956;28;20421;-88
2022/10/29 00:55:25;;;;;;;20.88;12.20;;;;;;;11.33;100.00;99104.72;2641374;28;20048;-89
2022/10/29 00:56:50;;;;;;;24.67;13.68;;;;;;;11.39;100.00;99108.97;2641245;28;20050;-87
2022/10/29 00:58:05;;;;;;;21.52;11.77;;;;;;;11.33;100.00;99109.94;2641506;28;20511;-88
2022/10/29 00:59:21;;;;;;;19.90;12.10;;;;;;;11.07;100.00;99102.59;2641170;28;20055;-87
2022/10/29 01:00:37;;;;;;;21.08;11.25;;;;;;;10.85;100.00;99105.63;2630950;28;20048;-88
2022/10/29 01:01:54;;;;;;;18.10;12.25;;;;;;;10.57;100.00;99112.19;2640460;28;20080;-87
2022/10/29 01:03:10;;;;;;;24.05;12.93;;;;;;;10.55;100.00;99114.00;2636332;28;20460;-88
2022/10/29 01:04:26;;;;;;;27.75;14.55;;;;;;;10.44;100.00;99105.44;2630813;28;20101;-88
2022/10/29 01:05:43;;;;;;;25.98;14.18;;;;;;;10.64;100.00;99112.13;2639919;28;20079;-88
2022/10/29 01:07:00;;;;;;;25.63;15.18;;;;;;;10.80;100.00;99104.84;2641399;28;20119;-87
2022/10/29 01:08:15;;;;;;;28.20;15.07;;;;;;;10.98;100.00;99106.25;2629945;28;20391;-87
2022/10/29 01:09:31;;;;;;;42.30;15.82;;;;;;;11.06;100.00;99109.59;2634565;28;20054;-87
2022/10/29 01:11:02;;;;;;;27.60;14.95;;;;;;;10.97;100.00;99105.41;2641397;28;20058;-87
2022/10/29 01:12:28;;;;;;;24.88;14.52;;;;;;;10.81;100.00;99098.69;2641243;28;20074;-87
2022/10/29 01:14:31;;;;;;;33.00;14.75;;;;;;;11.17;100.00;99101.53;2641236;28;20047;-87
2022/10/29 01:16:08;;;;;;;35.63;14.15;;;;;;;11.25;100.00;99096.13;2631976;28;20054;-86
2022/10/29 01:17:43;;;;;;;160.57;25.63;;;;;;;11.41;100.00;99100.16;2632652;28;20059;-86
2022/10/29 01:19:07;;;;;;;94.70;17.20;;;;;;;11.35;100.00;99097.66;2632417;28;20048;-86
2022/10/29 01:20:59;;;;;;;95.80;18.05;;;;;;;11.30;100.00;99095.13;2632483;28;20048;-87
2022/10/29 01:22:19;;;;;;;69.43;16.67;;;;;;;11.15;100.00;99083.19;2632370;28;20071;-87
2022/10/29 01:23:53;;;;;;;34.35;15.80;;;;;;;11.21;100.00;99084.81;2632587;28;20093;-87
2022/10/29 01:25:08;;;;;;;37.25;15.15;;;;;;;10.98;100.00;99082.66;2642382;28;20052;-87
2022/10/29 01:26:39;;;;;;;56.80;16.52;;;;;;;10.72;100.00;99086.63;2643219;28;20104;-87
2022/10/29 01:28:36;;;;;;;50.38;14.82;;;;;;;10.59;100.00;99091.25;2643104;28;20052;-88
2022/10/29 01:30:11;;;;;;;33.97;15.30;;;;;;;10.65;100.00;99100.75;2599903;28;20057;-88
2022/10/29 01:31:35;;;;;;;35.28;16.50;;;;;;;10.83;100.00;99092.53;2642877;28;20044;-87
2022/10/29 01:33:19;;;;;;;37.42;16.65;;;;;;;10.60;100.00;99106.91;2643023;28;20057;-90
2022/10/29 01:35:12;;;;;;;35.08;16.67;;;;;;;10.85;100.00;99098.63;2602306;28;20063;-88
2022/10/29 01:36:37;;;;;;;29.98;17.00;;;;;;;11.00;100.00;99110.56;2643053;28;20870;-87
2022/10/29 01:38:10;;;;;;;41.47;17.85;;;;;;;11.01;100.00;99109.69;2642772;28;20055;-87
2022/10/29 01:39:36;;;;;;;38.85;17.73;;;;;;;11.19;100.00;99102.34;2642190;28;20054;-86
2022/10/29 01:41:25;;;;;;;33.13;17.45;;;;;;;11.26;100.00;99097.84;2642432;28;20058;-87
2022/10/29 01:42:50;;;;;;;60.85;17.45;;;;;;;10.85;100.00;99098.63;2624657;28;20044;-87
2022/10/29 01:44:23;;;;;;;58.30;17.85;;;;;;;11.00;100.00;99109.69;2642905;28;20050;-86
2022/10/29 01:45:44;;;;;;;71.15;17.48;;;;;;;10.79;100.00;99113.59;2642952;28;20089;-87
2022/10/29 01:47:02;;;;;;;80.90;18.45;;;;;;;10.97;100.00;99110.66;2642774;28;20047;-87
2022/10/29 01:48:26;;;;;;;75.13;17.60;;;;;;;11.20;100.00;99109.31;2641493;28;20127;-87
2022/10/29 01:49:44;;;;;;;108.13;19.63;;;;;;;11.27;100.00;99099.56;2642805;28;20043;-87
2022/10/29 01:51:08;;;;;;;104.90;21.15;;;;;;;11.41;100.00;99105.41;2642818;28;20043;-87
2022/10/29 01:52:26;;;;;;;109.55;20.92;;;;;;;11.42;100.00;99101.03;2642560;28;20100;-86
2022/10/29 01:54:21;;;;;;;150.45;22.15;;;;;;;11.58;100.00;99097.19;2642763;28;20505;-87
2022/10/29 01:55:36;;;;;;;91.97;19.60;;;;;;;11.58;100.00;99096.31;2589388;28;20042;-87
2022/10/29 01:56:56;;;;;;;57.08;19.13;;;;;;;11.53;100.00;99087.69;2589401;28;20136;-88
2022/10/29 01:58:12;;;;;;;66.78;17.85;;;;;;;11.45;100.00;99087.84;2589519;28;20079;-87
2022/10/29 01:59:31;;;;;;;41.70;16.48;;;;;;;11.51;100.00;99085.09;2589244;28;20060;-88
2022/10/29 02:01:03;;;;;;;29.42;16.38;;;;;;;11.41;100.00;99078.34;2599675;28;20073;-88
2022/10/29 02:03:00;;;;;;;72.53;19.42;;;;;;;11.40;100.00;99082.69;2632222;28;20121;-88
2022/10/29 02:04:47;;;;;;;55.85;18.45;;;;;;;11.28;100.00;99077.72;2634489;28;20056;-87
2022/10/29 02:06:30;;;;;;;40.70;19.20;;;;;;;11.08;100.00;99075.47;2632313;28;20075;-86
2022/10/29 02:08:10;;;;;;;39.72;17.40;;;;;;;10.90;100.00;99072.34;2637416;28;20606;-87
2022/10/29 02:09:40;;;;;;;40.08;16.40;;;;;;;11.00;100.00;99075.63;2642534;28;20048;-87
2022/10/29 02:11:02;;;;;;;43.42;17.90;;;;;;;10.91;100.00;99075.84;2642579;28;20047;-90
2022/10/29 02:12:26;;;;;;;40.80;18.35;;;;;;;11.16;100.00;99076.22;2642416;28;20052;-88
2022/10/29 02:13:58;;;;;;;44.55;18.20;;;;;;;11.34;100.00;99074.09;2642443;28;20533;-87
2022/10/29 02:15:17;;;;;;;44.22;18.98;;;;;;;11.54;100.00;99063.19;2642604;28;20086;-87
2022/10/29 02:16:33;;;;;;;44.83;19.27;;;;;;;11.59;100.00;99059.56;2642369;28;20047;-87
2022/10/29 02:17:49;;;;;;;46.53;19.52;;;;;;;11.70;100.00;99064.56;2642379;28;20535;-87
2022/10/29 02:19:05;;;;;;;49.35;17.77;;;;;;;11.72;100.00;99057.50;2642482;28;20051;-87
2022/10/29 02:20:20;;;;;;;44.47;17.35;;;;;;;11.65;100.00;99058.56;2642012;28;20409;-87
2022/10/29 02:21:36;;;;;;;29.10;14.77;;;;;;;11.79;100.00;99060.88;2642453;28;20048;-86
2022/10/29 02:22:51;;;;;;;46.20;16.17;;;;;;;11.75;100.00;99056.59;2642515;28;20104;-87
2022/10/29 02:24:07;;;;;;;71.85;16.73;;;;;;;11.62;100.00;99063.00;2642312;28;20044;-86
2022/10/29 02:25:23;;;;;;;40.50;15.25;;;;;;;11.69;100.00;99064.63;2642486;28;20191;-86
2022/10/29 02:26:39;;;;;;;27.98;15.73;;;;;;;11.89;100.00;99058.03;2642034;28;20044;-87
2022/10/29 02:27:54;;;;;;;26.98;14.98;;;;;;;11.97;100.00;99049.06;2642259;28;20058;-87
2022/10/29 02:29:10;;;;;;;25.45;15.45;;;;;;;11.98;100.00;99066.53;2642569;28;20461;-88
2022/10/29 02:30:25;;;;;;;28.45;14.50;;;;;;;12.03;100.00;99063.00;2642476;28;20119;-88
2022/10/29 02:31:41;;;;;;;68.53;17.00;;;;;;;12.09;100.00;99062.84;2642339;28;20063;-88
2022/10/29 02:32:57;;;;;;;107.03;18.15;;;;;;;12.05;100.00;99062.03;2642351;28;20127;-88
2022/10/29 02:34:12;;;;;;;35.92;16.05;;;;;;;11.95;100.00;99060.53;2642227;28;20054;-88
2022/10/29 02:35:28;;;;;;;51.20;15.98;;;;;;;12.06;100.00;99058.53;2642333;28;20052;-87
2022/10/29 02:36:45;;;;;;;107.28;17.83;;;;;;;12.07;100.00;99052.38;2638526;28;20127;-87
2022/10/29 02:38:00;;;;;;;75.68;16.35;;;;;;;11.83;100.00;99062.53;2631686;28;20067;-87
2022/10/29 02:39:16;;;;;;;115.60;19.33;;;;;;;11.98;100.00;99057.81;2631687;28;20048;-87
2022/10/29 02:40:31;;;;;;;107.68;17.95;;;;;;;11.83;100.00;99059.91;2631620;28;20051;-87
2022/10/29 02:41:47;;;;;;;106.00;17.80;;;;;;;11.79;100.00;99058.25;2631634;28;20055;-87
2022/10/29 02:43:03;;;;;;;123.32;18.45;;;;;;;11.78;100.00;99058.28;2631664;28;20083;-87
2022/10/29 02:44:18;;;;;;;124.10;18.60;;;;;;;11.83;100.00;99053.78;2631619;28;20047;-87
2022/10/29 02:45:34;;;;;;;102.35;18.52;;;;;;;11.92;100.00;99050.97;2631814;28;20822;-87
2022/10/29 02:46:49;;;;;;;38.90;16.95;;;;;;;12.02;100.00;99056.03;2631712;28;20048;-87
2022/10/29 02:48:05;;;;;;;43.45;15.95;;;;;;;12.03;100.00;99052.50;2631872;28;20087;-87
2022/10/29 02:49:21;;;;;;;98.20;19.40;;;;;;;12.00;100.00;99046.38;2631784;28;20473;-87
2022/10/29 02:50:36;;;;;;;132.13;21.95;;;;;;;12.09;100.00;99052.34;2642177;28;20128;-87
2022/10/29 02:51:52;;;;;;;41.80;16.52;;;;;;;12.02;100.00;99056.03;2642212;28;20082;-87
2022/10/29 02:53:08;;;;;;;30.40;16.00;;;;;;;12.09;100.00;99044.47;2641887;28;20389;-87
2022/10/29 02:54:23;;;;;;;72.70;17.92;;;;;;;12.14;100.00;99058.34;2642227;28;20035;-87
2022/10/29 02:55:39;;;;;;;32.33;15.60;;;;;;;11.89;100.00;99048.41;2642335;28;20429;-87
2022/10/29 02:56:54;;;;;;;39.22;17.20;;;;;;;11.85;100.00;99045.00;2642151;28;20043;-87
2022/10/29 02:58:10;;;;;;;35.90;17.45;;;;;;;11.62;100.00;99049.91;2630794;28;20056;-87
2022/10/29 02:59:25;;;;;;;53.78;17.00;;;;;;;11.83;100.00;99051.16;2635008;28;20081;-88
2022/10/29 03:00:41;;;;;;;55.80;17.33;;;;;;;11.94;100.00;99045.66;2642084;28;20043;-87
2022/10/29 03:01:56;;;;;;;29.98;15.98;;;;;;;12.02;100.00;99042.91;2642076;28;20117;-88
2022/10/29 03:03:13;;;;;;;41.47;16.05;;;;;;;12.05;100.00;99041.06;2634692;28;20109;-88
2022/10/29 03:04:28;;;;;;;38.28;14.50;;;;;;;11.67;100.00;99048.91;2631509;28;20547;-88
2022/10/29 03:05:44;;;;;;;42.85;15.23;;;;;;;11.50;100.00;99041.41;2631177;28;20108;-88
2022/10/29 03:07:01;;;;;;;72.25;15.15;;;;;;;11.80;100.00;99040.75;2631626;28;20081;-87
2022/10/29 03:08:17;;;;;;;62.78;14.35;;;;;;;11.73;100.00;99043.53;2634952;28;20058;-87
2022/10/29 03:09:33;;;;;;;31.98;14.52;;;;;;;11.50;100.00;99045.81;2641972;28;20043;-88
2022/10/29 03:10:48;;;;;;;37.97;14.50;;;;;;;11.57;100.00;99047.38;2641963;28;20065;-88
2022/10/29 03:12:04;;;;;;;35.38;15.15;;;;;;;11.63;100.00;99046.38;2641873;28;20048;-87
2022/10/29 03:13:20;;;;;;;58.08;16.27;;;;;;;11.85;100.00;99041.50;2641878;28;20090;-87
2022/10/29 03:14:36;;;;;;;43.58;15.35;;;;;;;11.87;100.00;99043.19;2641638;28;20055;-88
2022/10/29 03:15:51;;;;;;;52.08;14.77;;;;;;;11.98;100.00;99042.94;2642016;28;20480;-87
2022/10/29 03:17:07;;;;;;;61.05;15.27;;;;;;;12.03;100.00;99047.25;2641869;28;20048;-87
2022/10/29 03:18:23;;;;;;;45.30;14.35;;;;;;;11.90;100.00;99039.66;2641692;28;20485;-88
2022/10/29 03:19:38;;;;;;;39.20;14.52;;;;;;;11.96;100.00;99042.09;2641790;28;20044;-88
2022/10/29 03:20:54;;;;;;;38.22;13.73;;;;;;;11.99;100.00;99036.78;2641725;28;20054;-87
2022/10/29 03:22:09;;;;;;;54.85;15.82;;;;;;;11.94;100.00;99038.66;2641733;28;20039;-88
2022/10/29 03:23:25;;;;;;;57.58;17.10;;;;;;;11.90;100.00;99031.78;2641835;28;20049;-88
2022/10/29 03:24:41;;;;;;;65.88;17.73;;;;;;;11.87;100.00;99032.69;2641981;28;20058;-87
2022/10/29 03:25:56;;;;;;;94.97;18.55;;;;;;;11.85;100.00;99041.50;2641922;28;20055;-87
2022/10/29 03:27:12;;;;;;;50.58;16.67;;;;;;;11.87;100.00;99035.31;2641859;28;20482;-88
2022/10/29 03:28:29;;;;;;;67.95;17.33;;;;;;;11.80;100.00;99038.13;2641696;28;20071;-88
2022/10/29 03:29:44;;;;;;;71.93;18.10;;;;;;;11.69;100.00;99036.59;2641847;28;20043;-88
2022/10/29 03:31:00;;;;;;;61.55;17.77;;;;;;;11.71;100.00;99040.06;2641694;28;20054;-87
2022/10/29 03:32:16;;;;;;;31.77;16.83;;;;;;;11.96;100.00;99036.84;2641713;28;20252;-87
2022/10/29 03:33:32;;;;;;;33.22;16.52;;;;;;;12.09;100.00;99034.84;2641778;28;20062;-87
2022/10/29 03:34:48;;;;;;;65.38;17.95;;;;;;;12.14;100.00;99037.34;2641708;28;20055;-87
2022/10/29 03:36:05;;;;;;;44.58;17.10;;;;;;;12.19;100.00;99034.59;2641805;28;20048;-87
2022/10/29 03:37:21;;;;;;;57.75;17.20;;;;;;;12.12;100.00;99031.25;2641562;28;20051;-87
2022/10/29 03:38:36;;;;;;;45.22;16.85;;;;;;;12.14;100.00;99038.22;2641265;28;20052;-87
2022/10/29 03:39:52;;;;;;;70.75;17.83;;;;;;;12.23;100.00;99033.66;2641091;28;20046;-87
2022/10/29 03:41:09;;;;;;;43.78;17.00;;;;;;;12.12;100.00;99036.50;2624565;28;20048;-87
2022/10/29 03:42:24;;;;;;;37.50;15.32;;;;;;;12.18;100.00;99031.13;2624737;28;20044;-87
2022/10/29 03:43:40;;;;;;;44.80;16.15;;;;;;;12.18;100.00;99039.00;2630999;28;20837;-88
2022/10/29 03:44:57;;;;;;;38.72;15.70;;;;;;;12.14;100.00;99029.47;2631293;28;20051;-87
2022/10/29 03:46:13;;;;;;;67.05;17.23;;;;;;;12.17;100.00;99025.91;2631221;28;20387;-87
2022/10/29 03:47:28;;;;;;;68.78;17.95;;;;;;;12.24;100.00;99033.59;2635969;28;20055;-87
2022/10/29 03:48:47;;;;;;;45.35;17.48;;;;;;;12.10;100.00;99026.06;2641749;28;20126;-87
2022/10/29 03:50:03;;;;;;;72.55;17.90;;;;;;;12.14;100.00;99030.34;2641610;28;20047;-87
2022/10/29 03:51:19;;;;;;;69.55;16.10;;;;;;;12.14;100.00;99032.09;2641747;28;20043;-87
2022/10/29 03:52:34;;;;;;;61.72;17.67;;;;;;;12.00;100.00;99029.78;2641808;28;20055;-87
2022/10/29 03:53:50;;;;;;;91.85;18.63;;;;;;;12.06;100.00;99034.06;2641837;28;20130;-87
2022/10/29 03:55:06;;;;;;;82.80;18.15;;;;;;;12.04;100.00;99025.38;2641713;28;20436;-87
2022/10/29 03:56:22;;;;;;;71.13;17.35;;;;;;;11.96;100.00;99028.13;2641737;28;20055;-87
2022/10/29 03:57:37;;;;;;;75.18;17.77;;;;;;;12.02;100.00;99030.63;2641668;28;20051;-87
2022/10/29 03:58:53;;;;;;;69.22;15.95;;;;;;;11.83;100.00;99028.44;2641755;28;20044;-87
2022/10/29 04:00:09;;;;;;;49.42;17.33;;;;;;;11.89;100.00;99034.41;2638495;28;20056;-87
2022/10/29 04:01:24;;;;;;;30.58;15.77;;;;;;;12.00;100.00;99035.88;2631079;28;20047;-88
2022/10/29 04:02:40;;;;;;;30.25;16.10;;;;;;;12.07;100.00;99027.91;2630919;28;20044;-87
2022/10/29 04:03:55;;;;;;;43.80;16.88;;;;;;;12.08;100.00;99025.25;2638216;28;20498;-87
2022/10/29 04:05:11;;;;;;;79.50;19.98;;;;;;;12.02;100.00;99027.16;2641685;28;20047;-87
2022/10/29 04:06:26;;;;;;;49.88;17.50;;;;;;;12.05;100.00;99033.19;2640545;28;20047;-88
2022/10/29 04:07:42;;;;;;;50.78;18.27;;;;;;;12.06;100.00;99036.69;2640491;28;20047;-87
2022/10/29 04:08:58;;;;;;;52.22;17.95;;;;;;;11.96;100.00;99025.50;2641355;28;20126;-87
2022/10/29 04:10:13;;;;;;;48.65;16.50;;;;;;;11.97;100.00;99028.09;2641244;28;20047;-88
2022/10/29 04:11:29;;;;;;;53.38;17.15;;;;;;;11.92;100.00;99036.97;2641827;28;20783;-88
2022/10/29 04:12:45;;;;;;;52.55;17.65;;;;;;;11.77;100.00;99046.06;2641096;28;20048;-88
2022/10/29 04:14:01;;;;;;;50.67;15.43;;;;;;;11.64;100.00;99046.34;2641368;28;20051;-87
2022/10/29 04:15:17;;;;;;;48.88;15.20;;;;;;;11.53;100.00;99046.59;2641633;28;20054;-87
2022/10/29 04:16:32;;;;;;;45.22;14.70;;;;;;;11.23;100.00;99055.97;2641736;28;20130;-88
2022/10/29 04:17:50;;;;;;;54.42;15.48;;;;;;;11.38;100.00;99054.78;2641375;28;20044;-88
2022/10/29 04:19:05;;;;;;;50.28;15.48;;;;;;;11.35;100.00;99052.22;2641491;28;20048;-89
2022/10/29 04:20:21;;;;;;;28.33;14.48;;;;;;;11.37;100.00;99043.44;2641482;28;20085;-88
2022/10/29 04:21:36;;;;;;;29.45;14.90;;;;;;;11.36;100.00;99043.47;2641309;28;20047;-88
2022/10/29 04:22:52;;;;;;;43.10;14.52;;;;;;;11.42;100.00;99043.34;2641311;28;20062;-88
2022/10/29 04:24:08;;;;;;;61.90;15.85;;;;;;;11.61;100.00;99038.56;2641590;28;20478;-87
2022/10/29 04:25:23;;;;;;;56.22;15.80;;;;;;;11.62;100.00;99040.28;2641564;28;20048;-89
2022/10/29 04:26:42;;;;;;;65.55;15.43;;;;;;;11.48;100.00;99043.19;2641087;28;20486;-88
2022/10/29 04:27:57;;;;;;;37.47;14.27;;;;;;;11.54;100.00;99045.69;2641383;28;20043;-88
2022/10/29 04:29:13;;;;;;;52.28;14.93;;;;;;;11.46;100.00;99044.16;2641108;28;20052;-89
2022/10/29 04:30:29;;;;;;;26.17;13.63;;;;;;;11.58;100.00;99042.09;2641393;28;20056;-88
2022/10/29 04:31:44;;;;;;;29.83;14.90;;;;;;;11.67;100.00;99045.44;2641210;28;20051;-88
2022/10/29 04:33:00;;;;;;;49.40;14.95;;;;;;;11.73;100.00;99042.66;2641031;28;20048;-88
2022/10/29 04:34:16;;;;;;;30.75;14.30;;;;;;;11.73;100.00;99038.28;2641311;28;20055;-88
2022/10/29 04:35:31;;;;;;;40.92;14.77;;;;;;;11.65;100.00;99049.81;2641165;28;20052;-88
2022/10/29 04:36:47;;;;;;;47.25;15.18;;;;;;;11.41;100.00;99052.97;2641247;28;20506;-87
2022/10/29 04:38:11;;;;;;;45.20;15.55;;;;;;;11.34;100.00;99061.00;2641482;28;20059;-87
2022/10/29 04:39:27;;;;;;;50.97;16.40;;;;;;;11.16;100.00;99058.72;2641207;28;20047;-87
2022/10/29 04:40:43;;;;;;;46.42;15.02;;;;;;;11.04;100.00;99056.38;2641608;28;20048;-87
2022/10/29 04:41:59;;;;;;;33.67;14.15;;;;;;;11.11;100.00;99057.09;2630132;28;20048;-88
2022/10/29 04:43:15;;;;;;;51.75;14.93;;;;;;;11.20;100.00;99061.28;2634608;28;20056;-88
2022/10/29 04:44:31;;;;;;;41.15;14.60;;;;;;;11.20;100.00;99063.91;2641295;28;20063;-88
2022/10/29 04:45:50;;;;;;;34.90;13.88;;;;;;;11.02;100.00;99071.22;2641465;28;20486;-88
2022/10/29 04:47:06;;;;;;;37.38;13.70;;;;;;;10.84;100.00;99078.56;2632566;28;20048;-88
2022/10/29 04:48:22;;;;;;;44.60;13.60;;;;;;;10.83;100.00;99068.97;2630804;28;20184;-88
2022/10/29 04:49:38;;;;;;;38.00;13.82;;;;;;;10.82;100.00;99069.00;2633897;28;20051;-88
2022/10/29 04:50:54;;;;;;;38.83;14.00;;;;;;;10.64;100.00;99070.22;2643068;28;20044;-87
2022/10/29 04:52:09;;;;;;;41.72;13.95;;;;;;;10.60;100.00;99067.63;2643243;28;20043;-89
2022/10/29 04:53:25;;;;;;;26.15;14.43;;;;;;;10.88;100.00;99074.97;2643376;28;20047;-89
2022/10/29 04:54:41;;;;;;;52.00;15.25;;;;;;;11.03;100.00;99067.72;2643110;28;20054;-88
2022/10/29 04:56:00;;;;;;;44.78;15.13;;;;;;;10.98;100.00;99074.81;2643201;28;20047;-87
2022/10/29 04:57:16;;;;;;;44.85;15.55;;;;;;;10.87;100.00;99073.25;2643406;28;20499;-87
2022/10/29 04:58:31;;;;;;;35.38;14.90;;;;;;;10.93;100.00;99067.03;2643439;28;20070;-88
2022/10/29 04:59:47;;;;;;;43.88;14.77;;;;;;;11.01;100.00;99072.13;2642920;28;20534;-88
2022/10/29 05:01:06;;;;;;;38.50;14.45;;;;;;;11.13;100.00;99068.41;2643157;28;20073;-87
2022/10/29 05:02:21;;;;;;;46.85;14.30;;;;;;;11.22;100.00;99069.97;2643426;28;20051;-87
2022/10/29 05:03:37;;;;;;;48.53;14.60;;;;;;;11.08;100.00;99073.75;2643334;28;20721;-87
2022/10/29 05:04:52;;;;;;;62.50;14.25;;;;;;;11.26;100.00;99069.91;2643403;28;20133;-88
2022/10/29 05:06:08;;;;;;;53.88;13.95;;;;;;;11.25;100.00;99072.53;2643221;28;20071;-87
2022/10/29 05:07:23;;;;;;;70.53;14.77;;;;;;;11.18;100.00;99070.94;2643225;28;20866;-87
2022/10/29 05:08:39;;;;;;;55.00;15.10;;;;;;;11.16;100.00;99074.44;2643290;28;20493;-87
2022/10/29 05:09:55;;;;;;;39.65;13.13;;;;;;;11.15;100.00;99079.72;2642942;28;20126;-88
2022/10/29 05:11:10;;;;;;;34.92;13.25;;;;;;;11.06;100.00;99078.16;2643167;28;20052;-88
2022/10/29 05:12:26;;;;;;;23.88;12.80;;;;;;;10.93;100.00;99081.91;2643100;28;20580;-89
2022/10/29 05:13:42;;;;;;;20.85;12.27;;;;;;;11.04;100.00;99079.06;2642941;28;20043;-88
2022/10/29 05:14:58;;;;;;;34.40;13.45;;;;;;;10.72;100.00;99076.16;2642875;28;20062;-90
2022/10/29 05:16:13;;;;;;;33.70;13.77;;;;;;;10.26;100.00;99083.03;2643023;28;20504;-89
2022/10/29 05:17:29;;;;;;;83.40;14.35;;;;;;;10.28;100.00;99087.34;2643102;28;20054;-89
2022/10/29 05:18:44;;;;;;;146.82;17.77;;;;;;;10.38;100.00;99092.44;2643096;28;20081;-89
2022/10/29 05:20:00;;;;;;;113.45;18.20;;;;;;;10.31;100.00;99089.91;2643085;28;20124;-89
2022/10/29 05:21:15;;;;;;;118.55;18.25;;;;;;;10.20;100.00;99085.75;2643095;28;20097;-89
2022/10/29 05:22:31;;;;;;;73.28;16.75;;;;;;;10.17;100.00;99084.03;2642886;28;20039;-89
2022/10/29 05:23:47;;;;;;;53.95;15.10;;;;;;;10.18;100.00;99078.78;2642943;28;20447;-88
2022/10/29 05:25:03;;;;;;;38.10;14.52;;;;;;;10.34;100.00;99089.00;2642623;28;20062;-87
2022/10/29 05:26:18;;;;;;;23.38;13.63;;;;;;;10.38;100.00;99085.44;2643015;28;20051;-88
2022/10/29 05:27:34;;;;;;;28.17;14.48;;;;;;;10.49;100.00;99090.53;2642596;28;20036;-88
2022/10/29 05:28:50;;;;;;;53.67;14.65;;;;;;;10.49;100.00;99087.94;2642736;28;20047;-87
2022/10/29 05:30:07;;;;;;;27.92;13.18;;;;;;;10.41;100.00;99089.81;2640024;28;20043;-88
2022/10/29 05:31:23;;;;;;;32.33;12.88;;;;;;;10.44;100.00;99089.75;2642466;28;20124;-88
2022/10/29 05:32:38;;;;;;;29.35;12.27;;;;;;;10.67;100.00;99094.56;2642377;28;20065;-88
2022/10/29 05:33:54;;;;;;;37.67;13.18;;;;;;;10.62;100.00;99090.34;2641191;28;20039;-89
2022/10/29 05:35:09;;;;;;;67.13;15.10;;;;;;;10.73;100.00;99088.34;2636462;28;20047;-88
2022/10/29 05:36:25;;;;;;;24.15;12.23;;;;;;;10.74;100.00;99084.84;2636738;28;20054;-89
2022/10/29 05:37:40;;;;;;;25.65;12.38;;;;;;;10.70;100.00;99091.91;2641287;28;20580;-88
2022/10/29 05:38:56;;;;;;;22.17;12.40;;;;;;;10.84;100.00;99094.28;2639146;28;20047;-88
2022/10/29 05:40:12;;;;;;;31.08;12.77;;;;;;;10.76;100.00;99092.69;2641237;28;20048;-88
2022/10/29 05:41:27;;;;;;;26.63;12.40;;;;;;;10.76;100.00;99090.06;2637878;28;20048;-88
2022/10/29 05:42:42;;;;;;;33.42;13.13;;;;;;;10.74;100.00;99092.72;2638748;28;20039;-88
2022/10/29 05:43:58;;;;;;;75.10;15.35;;;;;;;10.76;100.00;99096.19;2641350;28;20044;-88
2022/10/29 05:45:15;;;;;;;26.90;12.43;;;;;;;10.44;100.00;99100.22;2640048;28;20050;-89
2022/10/29 05:46:30;;;;;;;45.25;13.88;;;;;;;10.58;100.00;99100.84;2641387;28;20456;-89
2022/10/29 05:47:46;;;;;;;27.17;12.45;;;;;;;10.65;100.00;99100.75;2638872;28;20047;-89
2022/10/29 05:49:01;;;;;;;23.70;12.00;;;;;;;10.44;100.00;99105.44;2638754;28;20043;-87
2022/10/29 05:50:17;;;;;;;20.73;12.05;;;;;;;10.19;100.00;99116.28;2641480;28;20816;-88
2022/10/29 05:51:32;;;;;;;22.20;11.82;;;;;;;10.25;100.00;99107.47;2640692;28;20044;-90
2022/10/29 05:52:59;;;;;;;25.75;12.13;;;;;;;10.41;100.00;99105.50;2641108;28;20059;-88
2022/10/29 05:54:14;;;;;;;26.13;11.20;;;;;;;10.25;100.00;99100.50;2638434;28;20494;-88
2022/10/29 05:55:33;;;;;;;23.80;10.85;;;;;;;10.25;100.00;99104.84;2636924;28;20047;-88
2022/10/29 05:56:48;;;;;;;29.23;10.65;;;;;;;10.44;100.00;99101.09;2641338;28;20052;-88
2022/10/29 05:58:07;;;;;;;15.52;10.15;;;;;;;10.57;100.00;99106.13;2641221;28;20055;-88